Aérodrome :
LOGIN :

S'inscrire | Disclaimer

   EN    FR    IT 

 










Légende :    VFR   VFR Marginal   IFR   IFR Intensif   IFR Très Intensif
Visi : 
Plafond : 
>= 8 km
>= 3000ft
5 à 8 km
1000 à 3000 ft
1500m à 5 km
500 à 1000 ft
800 à 1500m
200 à 500 ft
< 800m
< 200 ft
Symboles :   Orages  Brouillard  Fortes neiges  Fortes précipitations  Vent > 20 kt
SIGMETs :   Divers  Orages  Givrage  Turbulence  Onde Orograph.  Cendres Volcan.







- Altitude de l'aérodrome : 581 ft
- Code IATA : UHE


LKKU - Kunovice

DERNIER METAR :
  • 290600Z 17017KT 130V210 9999 FEW035 22/12 Q0995

METARs EXPIRÉS :
  • 290500Z 16017KT CAVOK 21/12 Q0995

TAF N/A
Pas de NOTAMs connus pour ce terrain.
1 SIGMET publié pour la FIR Praha (LKAA) :
 
Orages noyés dans la masse
LKAA SIGMET 2 VALID 290705/290830 LKPW
LKAA PRAHA FIR EMBD TS OBS WI N5020 E01206 - N4942 E01226 - N4838 E01404 - N4943 E01516 - N5050 E01400 TOP FL300 MOV NW-N NC=



MET'MAP, la Météo Aéronautique d'un coup d'oeil ! - Copyright ORBIFLY Décembre 2007 - Disclaimer

ORBIFLY MET'MAP TEAM :

Programmation & Développement : Alexandra Zaïnal
Conception & Développement : Baudouin d'Aumeries
Co-Programmation & Développement : Marc-Olivier Méhu
Soutien technique & logistique : Manuel Goepfert

Contact : metmap@orbifly.com




SOURCES & CREDITS :

   NOAA